sensor_id;sensor_type;location;lat;lon;timestamp;temperature;humidity
59015;DHT22;44799;53.382;14.666;2023-02-01T07:37:56;20.10;72.40
59015;DHT22;44799;53.382;14.666;2023-02-01T07:40:22;20.10;73.40
59015;DHT22;44799;53.382;14.666;2023-02-01T07:42:54;20.10;73.30
59015;DHT22;44799;53.382;14.666;2023-02-01T07:45:21;20.10;73.10
59015;DHT22;44799;53.382;14.666;2023-02-01T07:47:47;20.20;73.40
59015;DHT22;44799;53.382;14.666;2023-02-01T07:50:13;20.10;73.00
59015;DHT22;44799;53.382;14.666;2023-02-01T07:52:39;20.10;72.80
59015;DHT22;44799;53.382;14.666;2023-02-01T07:55:06;20.10;73.00
59015;DHT22;44799;53.382;14.666;2023-02-01T07:57:32;20.10;72.80
59015;DHT22;44799;53.382;14.666;2023-02-01T07:59:58;20.10;72.80
59015;DHT22;44799;53.382;14.666;2023-02-01T08:02:42;20.10;73.10
59015;DHT22;44799;53.382;14.666;2023-02-01T08:05:08;20.00;73.10
59015;DHT22;44799;53.382;14.666;2023-02-01T08:07:34;20.10;73.30
59015;DHT22;44799;53.382;14.666;2023-02-01T08:10:00;20.10;74.00
59015;DHT22;44799;53.382;14.666;2023-02-01T08:12:26;20.00;74.50
59015;DHT22;44799;53.382;14.666;2023-02-01T08:14:52;20.00;74.10
59015;DHT22;44799;53.382;14.666;2023-02-01T08:17:19;20.00;74.30
59015;DHT22;44799;53.382;14.666;2023-02-01T08:19:45;19.90;74.00
59015;DHT22;44799;53.382;14.666;2023-02-01T08:22:11;19.90;73.70
59015;DHT22;44799;53.382;14.666;2023-02-01T08:24:37;19.80;73.30
59015;DHT22;44799;53.382;14.666;2023-02-01T08:27:06;19.80;73.10
59015;DHT22;44799;53.382;14.666;2023-02-01T08:29:32;19.80;72.80
59015;DHT22;44799;53.382;14.666;2023-02-01T08:31:58;19.80;72.70
59015;DHT22;44799;53.382;14.666;2023-02-01T08:34:24;19.80;72.50
59015;DHT22;44799;53.382;14.666;2023-02-01T08:36:49;19.80;72.20
59015;DHT22;44799;53.382;14.666;2023-02-01T08:39:17;19.80;72.10
59015;DHT22;44799;53.382;14.666;2023-02-01T08:41:43;19.80;71.70
59015;DHT22;44799;53.382;14.666;2023-02-01T08:44:29;19.80;71.40
59015;DHT22;44799;53.382;14.666;2023-02-01T08:46:54;19.80;71.30
59015;DHT22;44799;53.382;14.666;2023-02-01T08:49:20;19.80;71.10
59015;DHT22;44799;53.382;14.666;2023-02-01T08:51:46;19.80;70.80
59015;DHT22;44799;53.382;14.666;2023-02-01T08:54:12;19.80;70.50
59015;DHT22;44799;53.382;14.666;2023-02-01T08:56:38;19.80;70.20
59015;DHT22;44799;53.382;14.666;2023-02-01T08:59:03;20.60;70.30
59015;DHT22;44799;53.382;14.666;2023-02-01T09:01:29;19.80;69.70
59015;DHT22;44799;53.382;14.666;2023-02-01T09:03:55;19.70;69.40
59015;DHT22;44799;53.382;14.666;2023-02-01T09:06:21;19.80;69.40
59015;DHT22;44799;53.382;14.666;2023-02-01T09:08:46;19.70;69.10
59015;DHT22;44799;53.382;14.666;2023-02-01T09:11:15;19.70;68.80
59015;DHT22;44799;53.382;14.666;2023-02-01T09:13:41;19.70;68.60
59015;DHT22;44799;53.382;14.666;2023-02-01T09:16:07;19.60;68.50
59015;DHT22;44799;53.382;14.666;2023-02-01T09:18:33;19.60;68.30
59015;DHT22;44799;53.382;14.666;2023-02-01T09:20:58;19.60;68.10
59015;DHT22;44799;53.382;14.666;2023-02-01T09:23:24;19.60;67.80
59015;DHT22;44799;53.382;14.666;2023-02-01T09:25:50;19.60;67.60
59015;DHT22;44799;53.382;14.666;2023-02-01T09:28:17;19.60;67.40
59015;DHT22;44799;53.382;14.666;2023-02-01T09:30:43;19.60;67.20
59015;DHT22;44799;53.382;14.666;2023-02-01T09:33:09;19.60;67.10
59015;DHT22;44799;53.382;14.666;2023-02-01T09:35:35;19.50;66.90
59015;DHT22;44799;53.382;14.666;2023-02-01T09:38:01;19.50;66.50
59015;DHT22;44799;53.382;14.666;2023-02-01T09:40:26;19.50;66.50
59015;DHT22;44799;53.382;14.666;2023-02-01T09:45:55;19.50;66.20
59015;DHT22;44799;53.382;14.666;2023-02-01T09:48:29;19.50;66.10
59015;DHT22;44799;53.382;14.666;2023-02-01T09:50:58;19.40;65.80
59015;DHT22;44799;53.382;14.666;2023-02-01T09:53:34;19.40;65.90
59015;DHT22;44799;53.382;14.666;2023-02-01T09:56:15;19.40;65.80
59015;DHT22;44799;53.382;14.666;2023-02-01T09:59:02;19.40;65.70
59015;DHT22;44799;53.382;14.666;2023-02-01T10:01:31;19.40;65.40
59015;DHT22;44799;53.382;14.666;2023-02-01T10:04:10;19.40;65.30
59015;DHT22;44799;53.382;14.666;2023-02-01T10:11:44;19.40;65.00
59015;DHT22;44799;53.382;14.666;2023-02-01T10:17:12;19.30;64.80
59015;DHT22;44799;53.382;14.666;2023-02-01T10:20:27;19.30;64.80
59015;DHT22;44799;53.382;14.666;2023-02-01T10:25:13;19.30;64.80
59015;DHT22;44799;53.382;14.666;2023-02-01T10:27:40;19.30;64.70
59015;DHT22;44799;53.382;14.666;2023-02-01T10:30:20;19.20;64.70
59015;DHT22;44799;53.382;14.666;2023-02-01T10:32:58;19.30;64.60
59015;DHT22;44799;53.382;14.666;2023-02-01T10:35:31;19.30;64.40
59015;DHT22;44799;53.382;14.666;2023-02-01T10:38:02;19.20;64.30
59015;DHT22;44799;53.382;14.666;2023-02-01T10:40:29;19.20;64.30
59015;DHT22;44799;53.382;14.666;2023-02-01T10:43:04;19.30;64.30
59015;DHT22;44799;53.382;14.666;2023-02-01T10:45:32;19.20;64.10
59015;DHT22;44799;53.382;14.666;2023-02-01T10:48:00;19.20;64.00
59015;DHT22;44799;53.382;14.666;2023-02-01T10:55:53;19.20;63.80
59015;DHT22;44799;53.382;14.666;2023-02-01T10:58:25;19.20;63.80
59015;DHT22;44799;53.382;14.666;2023-02-01T11:00:58;19.10;63.60
59015;DHT22;44799;53.382;14.666;2023-02-01T11:03:40;19.10;63.70
59015;DHT22;44799;53.382;14.666;2023-02-01T11:06:17;19.10;63.60
59015;DHT22;44799;53.382;14.666;2023-02-01T11:08:50;19.10;64.30
59015;DHT22;44799;53.382;14.666;2023-02-01T11:11:16;19.10;63.40
59015;DHT22;44799;53.382;14.666;2023-02-01T11:13:42;19.10;63.40
59015;DHT22;44799;53.382;14.666;2023-02-01T11:16:13;19.10;63.40
59015;DHT22;44799;53.382;14.666;2023-02-01T11:18:40;19.10;63.40
59015;DHT22;44799;53.382;14.666;2023-02-01T11:21:08;19.10;63.40
59015;DHT22;44799;53.382;14.666;2023-02-01T11:23:41;19.00;63.30
59015;DHT22;44799;53.382;14.666;2023-02-01T11:26:34;19.00;63.30
59015;DHT22;44799;53.382;14.666;2023-02-01T11:29:08;19.00;63.30
59015;DHT22;44799;53.382;14.666;2023-02-01T11:31:35;18.20;62.70
59015;DHT22;44799;53.382;14.666;2023-02-01T11:34:08;19.00;63.20
59015;DHT22;44799;53.382;14.666;2023-02-01T11:36:37;19.00;63.20
59015;DHT22;44799;53.382;14.666;2023-02-01T11:41:55;19.00;63.20
59015;DHT22;44799;53.382;14.666;2023-02-01T11:44:30;18.90;63.10
59015;DHT22;44799;53.382;14.666;2023-02-01T11:47:19;18.90;63.10
59015;DHT22;44799;53.382;14.666;2023-02-01T11:49:46;18.90;63.00
59015;DHT22;44799;53.382;14.666;2023-02-01T12:09:20;19.00;62.90
59015;DHT22;44799;53.382;14.666;2023-02-01T12:12:05;19.00;62.90
59015;DHT22;44799;53.382;14.666;2023-02-01T12:14:56;19.00;63.00
59015;DHT22;44799;53.382;14.666;2023-02-01T12:23:25;18.90;62.70
59015;DHT22;44799;53.382;14.666;2023-02-01T12:26:00;18.90;62.80
59015;DHT22;44799;53.382;14.666;2023-02-01T12:28:54;18.80;62.50
59015;DHT22;44799;53.382;14.666;2023-02-01T12:32:10;18.80;62.70
59015;DHT22;44799;53.382;14.666;2023-02-01T12:37:44;18.70;62.50
59015;DHT22;44799;53.382;14.666;2023-02-01T12:43:03;18.80;62.50
59015;DHT22;44799;53.382;14.666;2023-02-01T12:45:40;18.80;62.40
59015;DHT22;44799;53.382;14.666;2023-02-01T12:48:25;18.80;62.40
59015;DHT22;44799;53.382;14.666;2023-02-01T12:51:15;18.80;62.40
59015;DHT22;44799;53.382;14.666;2023-02-01T12:53:52;18.90;62.40
59015;DHT22;44799;53.382;14.666;2023-02-01T12:56:34;18.80;62.20
59015;DHT22;44799;53.382;14.666;2023-02-01T12:59:05;18.80;62.30
59015;DHT22;44799;53.382;14.666;2023-02-01T13:01:35;18.80;62.30
59015;DHT22;44799;53.382;14.666;2023-02-01T13:07:05;18.80;62.30
59015;DHT22;44799;53.382;14.666;2023-02-01T13:09:42;18.80;62.30
59015;DHT22;44799;53.382;14.666;2023-02-01T13:15:09;18.80;62.30
59015;DHT22;44799;53.382;14.666;2023-02-01T13:17:38;18.80;62.30
59015;DHT22;44799;53.382;14.666;2023-02-01T13:20:29;18.80;62.30
59015;DHT22;44799;53.382;14.666;2023-02-01T13:23:22;18.90;62.30
59015;DHT22;44799;53.382;14.666;2023-02-01T13:25:51;18.80;62.30
59015;DHT22;44799;53.382;14.666;2023-02-01T13:31:21;18.90;62.40
59015;DHT22;44799;53.382;14.666;2023-02-01T13:33:59;18.90;62.40
59015;DHT22;44799;53.382;14.666;2023-02-01T13:42:48;18.80;62.40
59015;DHT22;44799;53.382;14.666;2023-02-01T13:45:23;18.90;62.40
59015;DHT22;44799;53.382;14.666;2023-02-01T13:47:52;18.80;62.40
59015;DHT22;44799;53.382;14.666;2023-02-01T13:53:02;18.80;62.40
59015;DHT22;44799;53.382;14.666;2023-02-01T13:55:35;18.80;62.30
59015;DHT22;44799;53.382;14.666;2023-02-01T13:58:15;18.70;62.30
59015;DHT22;44799;53.382;14.666;2023-02-01T14:00:42;18.70;62.40
59015;DHT22;44799;53.382;14.666;2023-02-01T14:03:12;18.70;62.40
59015;DHT22;44799;53.382;14.666;2023-02-01T14:08:12;18.80;62.30
59015;DHT22;44799;53.382;14.666;2023-02-01T14:26:25;18.70;62.10
59015;DHT22;44799;53.382;14.666;2023-02-01T14:28:52;18.70;62.00
59015;DHT22;44799;53.382;14.666;2023-02-01T14:31:33;18.70;62.00
59015;DHT22;44799;53.382;14.666;2023-02-01T14:34:04;18.80;62.00
59015;DHT22;44799;53.382;14.666;2023-02-01T14:36:58;18.70;61.90
59015;DHT22;44799;53.382;14.666;2023-02-01T14:48:39;18.70;61.90
59015;DHT22;44799;53.382;14.666;2023-02-01T14:50:47;18.80;62.00
59015;DHT22;44799;53.382;14.666;2023-02-01T14:53:16;18.70;62.00
59015;DHT22;44799;53.382;14.666;2023-02-01T14:59:00;18.70;62.00
59015;DHT22;44799;53.382;14.666;2023-02-01T15:01:32;18.70;62.00
59015;DHT22;44799;53.382;14.666;2023-02-01T15:06:42;18.70;61.90
59015;DHT22;44799;53.382;14.666;2023-02-01T15:14:37;18.70;61.90
59015;DHT22;44799;53.382;14.666;2023-02-01T15:17:15;18.70;61.90
59015;DHT22;44799;53.382;14.666;2023-02-01T15:19:59;18.70;61.90
59015;DHT22;44799;53.382;14.666;2023-02-01T15:22:26;18.70;61.90
59015;DHT22;44799;53.382;14.666;2023-02-01T15:24:57;18.70;62.00
59015;DHT22;44799;53.382;14.666;2023-02-01T15:27:24;18.70;62.00
59015;DHT22;44799;53.382;14.666;2023-02-01T15:29:50;18.70;62.00
59015;DHT22;44799;53.382;14.666;2023-02-01T15:32:35;18.70;61.90
59015;DHT22;44799;53.382;14.666;2023-02-01T15:35:03;18.70;61.90
59015;DHT22;44799;53.382;14.666;2023-02-01T15:37:30;18.70;62.00
59015;DHT22;44799;53.382;14.666;2023-02-01T15:42:55;18.70;61.90
59015;DHT22;44799;53.382;14.666;2023-02-01T15:45:25;18.70;61.90
59015;DHT22;44799;53.382;14.666;2023-02-01T15:47:53;18.70;61.90
59015;DHT22;44799;53.382;14.666;2023-02-01T15:50:19;18.70;61.90
59015;DHT22;44799;53.382;14.666;2023-02-01T15:52:48;18.70;61.90
59015;DHT22;44799;53.382;14.666;2023-02-01T15:57:48;18.70;61.90
59015;DHT22;44799;53.382;14.666;2023-02-01T16:00:28;18.70;61.90
59015;DHT22;44799;53.382;14.666;2023-02-01T16:02:59;18.70;62.00
59015;DHT22;44799;53.382;14.666;2023-02-01T16:08:14;18.60;61.90
59015;DHT22;44799;53.382;14.666;2023-02-01T16:10:43;18.60;62.00
59015;DHT22;44799;53.382;14.666;2023-02-01T16:13:11;18.60;62.10
59015;DHT22;44799;53.382;14.666;2023-02-01T16:15:38;18.60;62.00
59015;DHT22;44799;53.382;14.666;2023-02-01T16:18:05;18.60;62.00
59015;DHT22;44799;53.382;14.666;2023-02-01T16:20:32;18.60;62.00
59015;DHT22;44799;53.382;14.666;2023-02-01T16:22:58;18.60;62.00
59015;DHT22;44799;53.382;14.666;2023-02-01T16:25:24;18.60;62.10
59015;DHT22;44799;53.382;14.666;2023-02-01T16:27:50;18.60;62.10
59015;DHT22;44799;53.382;14.666;2023-02-01T16:30:16;18.60;62.10
59015;DHT22;44799;53.382;14.666;2023-02-01T16:32:49;18.60;62.10
59015;DHT22;44799;53.382;14.666;2023-02-01T16:35:32;18.60;62.10
59015;DHT22;44799;53.382;14.666;2023-02-01T16:38:15;18.60;62.10
59015;DHT22;44799;53.382;14.666;2023-02-01T16:40:45;18.60;62.20
59015;DHT22;44799;53.382;14.666;2023-02-01T16:43:22;18.50;62.10
59015;DHT22;44799;53.382;14.666;2023-02-01T16:45:50;18.50;62.20
59015;DHT22;44799;53.382;14.666;2023-02-01T16:48:24;18.50;62.10
59015;DHT22;44799;53.382;14.666;2023-02-01T16:50:58;18.60;62.20
59015;DHT22;44799;53.382;14.666;2023-02-01T16:53:26;18.60;62.80
59015;DHT22;44799;53.382;14.666;2023-02-01T16:55:53;18.60;62.10
59015;DHT22;44799;53.382;14.666;2023-02-01T16:58:20;18.60;62.10
59015;DHT22;44799;53.382;14.666;2023-02-01T17:00:47;18.60;62.10
59015;DHT22;44799;53.382;14.666;2023-02-01T17:03:14;18.60;62.10
59015;DHT22;44799;53.382;14.666;2023-02-01T17:05:52;18.60;62.10
59015;DHT22;44799;53.382;14.666;2023-02-01T17:08:32;18.60;62.10
59015;DHT22;44799;53.382;14.666;2023-02-01T17:10:58;18.60;62.10
59015;DHT22;44799;53.382;14.666;2023-02-01T17:13:24;18.60;62.10
59015;DHT22;44799;53.382;14.666;2023-02-01T17:16:19;18.60;62.10
59015;DHT22;44799;53.382;14.666;2023-02-01T17:19:16;18.60;62.10
59015;DHT22;44799;53.382;14.666;2023-02-01T17:21:50;18.60;62.10
59015;DHT22;44799;53.382;14.666;2023-02-01T17:24:19;18.60;62.10
59015;DHT22;44799;53.382;14.666;2023-02-01T17:26:45;18.60;62.10
59015;DHT22;44799;53.382;14.666;2023-02-01T17:29:12;18.60;62.00
59015;DHT22;44799;53.382;14.666;2023-02-01T17:31:41;18.60;62.00
59015;DHT22;44799;53.382;14.666;2023-02-01T17:34:09;18.50;61.90
59015;DHT22;44799;53.382;14.666;2023-02-01T17:36:35;18.50;62.00
59015;DHT22;44799;53.382;14.666;2023-02-01T17:39:01;18.50;62.00
59015;DHT22;44799;53.382;14.666;2023-02-01T17:41:27;18.50;61.90
59015;DHT22;44799;53.382;14.666;2023-02-01T17:43:53;18.50;61.90
59015;DHT22;44799;53.382;14.666;2023-02-01T17:46:19;18.50;61.90
59015;DHT22;44799;53.382;14.666;2023-02-01T17:48:52;18.50;61.90
59015;DHT22;44799;53.382;14.666;2023-02-01T17:51:20;18.50;61.90
59015;DHT22;44799;53.382;14.666;2023-02-01T17:53:47;18.50;61.80
59015;DHT22;44799;53.382;14.666;2023-02-01T17:56:15;18.50;61.90
59015;DHT22;44799;53.382;14.666;2023-02-01T17:58:41;18.50;61.90
59015;DHT22;44799;53.382;14.666;2023-02-01T18:01:18;18.40;61.80
59015;DHT22;44799;53.382;14.666;2023-02-01T18:03:44;18.50;61.80
59015;DHT22;44799;53.382;14.666;2023-02-01T18:06:15;18.50;61.80
59015;DHT22;44799;53.382;14.666;2023-02-01T18:08:41;18.50;61.70
59015;DHT22;44799;53.382;14.666;2023-02-01T18:11:12;18.50;61.70
59015;DHT22;44799;53.382;14.666;2023-02-01T18:13:38;18.40;61.60
59015;DHT22;44799;53.382;14.666;2023-02-01T18:16:04;18.50;61.70
59015;DHT22;44799;53.382;14.666;2023-02-01T18:18:30;18.50;61.60
59015;DHT22;44799;53.382;14.666;2023-02-01T18:20:58;18.50;61.60
59015;DHT22;44799;53.382;14.666;2023-02-01T18:23:24;18.50;61.60
59015;DHT22;44799;53.382;14.666;2023-02-01T18:25:51;18.50;61.60
59015;DHT22;44799;53.382;14.666;2023-02-01T18:28:18;18.50;61.60
59015;DHT22;44799;53.382;14.666;2023-02-01T18:30:47;18.40;61.50
59015;DHT22;44799;53.382;14.666;2023-02-01T18:33:15;18.50;61.60
59015;DHT22;44799;53.382;14.666;2023-02-01T18:35:42;18.50;61.60
59015;DHT22;44799;53.382;14.666;2023-02-01T18:38:08;18.50;61.50
59015;DHT22;44799;53.382;14.666;2023-02-01T18:40:38;18.40;61.50
59015;DHT22;44799;53.382;14.666;2023-02-01T18:43:05;18.50;61.50
59015;DHT22;44799;53.382;14.666;2023-02-01T18:47:57;18.40;61.50
59015;DHT22;44799;53.382;14.666;2023-02-01T18:50:24;18.50;61.80
59015;DHT22;44799;53.382;14.666;2023-02-01T18:52:57;18.50;62.00
59015;DHT22;44799;53.382;14.666;2023-02-01T18:55:24;18.60;61.90
59015;DHT22;44799;53.382;14.666;2023-02-01T18:57:50;18.70;61.90
59015;DHT22;44799;53.382;14.666;2023-02-01T19:00:17;18.80;61.90
59015;DHT22;44799;53.382;14.666;2023-02-01T19:02:44;18.80;61.80
59015;DHT22;44799;53.382;14.666;2023-02-01T19:05:10;19.00;62.00
59015;DHT22;44799;53.382;14.666;2023-02-01T19:07:37;19.10;62.00
59015;DHT22;44799;53.382;14.666;2023-02-01T19:10:04;19.20;62.00
59015;DHT22;44799;53.382;14.666;2023-02-01T19:12:32;19.30;62.20
59015;DHT22;44799;53.382;14.666;2023-02-01T19:15:03;19.40;61.90
59015;DHT22;44799;53.382;14.666;2023-02-01T19:17:30;19.50;62.30
59015;DHT22;44799;53.382;14.666;2023-02-01T19:19:55;19.60;62.20
59015;DHT22;44799;53.382;14.666;2023-02-01T19:22:24;19.60;62.20
59015;DHT22;44799;53.382;14.666;2023-02-01T19:24:50;19.60;62.10
59015;DHT22;44799;53.382;14.666;2023-02-01T19:27:16;19.60;62.80
59015;DHT22;44799;53.382;14.666;2023-02-01T19:29:41;19.60;63.00
59015;DHT22;44799;53.382;14.666;2023-02-01T19:32:11;19.60;62.90
59015;DHT22;44799;53.382;14.666;2023-02-01T19:34:36;19.70;63.10
59015;DHT22;44799;53.382;14.666;2023-02-01T19:37:04;19.60;63.40
59015;DHT22;44799;53.382;14.666;2023-02-01T19:39:30;19.60;63.70
59015;DHT22;44799;53.382;14.666;2023-02-01T19:41:56;19.60;63.70
59015;DHT22;44799;53.382;14.666;2023-02-01T19:44:24;19.60;64.10
59015;DHT22;44799;53.382;14.666;2023-02-01T19:46:49;19.60;63.90
59015;DHT22;44799;53.382;14.666;2023-02-01T19:49:15;19.60;64.00
59015;DHT22;44799;53.382;14.666;2023-02-01T19:51:41;19.60;64.00
59015;DHT22;44799;53.382;14.666;2023-02-01T19:54:10;19.70;64.00
59015;DHT22;44799;53.382;14.666;2023-02-01T19:56:36;19.70;64.00
59015;DHT22;44799;53.382;14.666;2023-02-01T19:59:03;19.70;64.10
59015;DHT22;44799;53.382;14.666;2023-02-01T20:01:30;19.70;64.10
59015;DHT22;44799;53.382;14.666;2023-02-01T20:03:56;19.70;64.90
59015;DHT22;44799;53.382;14.666;2023-02-01T20:06:30;19.70;64.30
59015;DHT22;44799;53.382;14.666;2023-02-01T20:08:57;19.70;64.20
59015;DHT22;44799;53.382;14.666;2023-02-01T20:11:24;19.70;64.20
59015;DHT22;44799;53.382;14.666;2023-02-01T20:13:54;19.70;64.00
59015;DHT22;44799;53.382;14.666;2023-02-01T20:16:20;19.70;64.30
59015;DHT22;44799;53.382;14.666;2023-02-01T20:18:46;19.70;64.80
59015;DHT22;44799;53.382;14.666;2023-02-01T20:21:13;19.70;64.20
59015;DHT22;44799;53.382;14.666;2023-02-01T20:23:39;19.70;64.20
59015;DHT22;44799;53.382;14.666;2023-02-01T20:26:06;19.80;64.40
59015;DHT22;44799;53.382;14.666;2023-02-01T20:28:33;19.70;64.20
59015;DHT22;44799;53.382;14.666;2023-02-01T20:31:00;19.70;64.20
59015;DHT22;44799;53.382;14.666;2023-02-01T20:33:26;19.80;64.40
59015;DHT22;44799;53.382;14.666;2023-02-01T20:35:53;19.80;64.70
59015;DHT22;44799;53.382;14.666;2023-02-01T20:38:19;19.80;64.50
59015;DHT22;44799;53.382;14.666;2023-02-01T20:40:45;19.90;64.60
59015;DHT22;44799;53.382;14.666;2023-02-01T20:43:11;19.90;64.80
59015;DHT22;44799;53.382;14.666;2023-02-01T20:45:41;20.00;64.60
59015;DHT22;44799;53.382;14.666;2023-02-01T20:48:08;20.00;64.50
59015;DHT22;44799;53.382;14.666;2023-02-01T20:50:34;20.00;64.50
59015;DHT22;44799;53.382;14.666;2023-02-01T20:53:01;20.00;64.60
59015;DHT22;44799;53.382;14.666;2023-02-01T20:55:26;20.00;64.50
59015;DHT22;44799;53.382;14.666;2023-02-01T20:57:52;20.00;64.60
59015;DHT22;44799;53.382;14.666;2023-02-01T21:00:19;20.00;64.70
59015;DHT22;44799;53.382;14.666;2023-02-01T21:02:48;20.00;64.70
59015;DHT22;44799;53.382;14.666;2023-02-01T21:05:14;20.00;64.70
59015;DHT22;44799;53.382;14.666;2023-02-01T21:07:41;20.50;64.90
59015;DHT22;44799;53.382;14.666;2023-02-01T21:10:07;20.00;64.70
59015;DHT22;44799;53.382;14.666;2023-02-01T21:12:34;20.10;64.80
59015;DHT22;44799;53.382;14.666;2023-02-01T21:15:00;20.10;64.70
59015;DHT22;44799;53.382;14.666;2023-02-01T21:17:25;20.10;64.70
59015;DHT22;44799;53.382;14.666;2023-02-01T21:19:54;20.20;64.50
59015;DHT22;44799;53.382;14.666;2023-02-01T21:22:20;20.20;64.40
59015;DHT22;44799;53.382;14.666;2023-02-01T21:24:46;20.30;64.40
59015;DHT22;44799;53.382;14.666;2023-02-01T21:27:12;20.30;64.40
59015;DHT22;44799;53.382;14.666;2023-02-01T21:29:38;20.20;64.30
59015;DHT22;44799;53.382;14.666;2023-02-01T21:32:05;20.20;64.50
59015;DHT22;44799;53.382;14.666;2023-02-01T21:34:32;20.20;64.70
59015;DHT22;44799;53.382;14.666;2023-02-01T21:36:57;20.20;64.80
59015;DHT22;44799;53.382;14.666;2023-02-01T21:39:23;20.10;64.90
59015;DHT22;44799;53.382;14.666;2023-02-01T21:41:49;20.00;65.00
59015;DHT22;44799;53.382;14.666;2023-02-01T21:44:33;20.00;65.10
59015;DHT22;44799;53.382;14.666;2023-02-01T21:46:59;20.00;65.20
59015;DHT22;44799;53.382;14.666;2023-02-01T21:49:25;19.90;65.30
59015;DHT22;44799;53.382;14.666;2023-02-01T21:51:53;19.90;65.30
59015;DHT22;44799;53.382;14.666;2023-02-01T21:54:19;19.90;65.40
59015;DHT22;44799;53.382;14.666;2023-02-01T21:56:45;19.90;65.50
59015;DHT22;44799;53.382;14.666;2023-02-01T21:59:11;19.90;65.50
59015;DHT22;44799;53.382;14.666;2023-02-01T22:01:38;19.90;65.60
59015;DHT22;44799;53.382;14.666;2023-02-01T22:04:05;19.80;65.60
59015;DHT22;44799;53.382;14.666;2023-02-01T22:06:35;19.80;65.70
59015;DHT22;44799;53.382;14.666;2023-02-01T22:09:01;19.80;66.50
59015;DHT22;44799;53.382;14.666;2023-02-01T22:11:28;21.10;66.70
59015;DHT22;44799;53.382;14.666;2023-02-01T22:13:54;19.80;66.00
59015;DHT22;44799;53.382;14.666;2023-02-01T22:16:19;19.80;66.00
59015;DHT22;44799;53.382;14.666;2023-02-01T22:18:52;19.90;66.00
59015;DHT22;44799;53.382;14.666;2023-02-01T22:21:19;19.90;66.10
59015;DHT22;44799;53.382;14.666;2023-02-01T22:23:53;19.90;66.00
59015;DHT22;44799;53.382;14.666;2023-02-01T22:26:20;19.90;66.00
59015;DHT22;44799;53.382;14.666;2023-02-01T22:28:46;19.90;66.00
59015;DHT22;44799;53.382;14.666;2023-02-01T22:31:12;19.90;66.10
59015;DHT22;44799;53.382;14.666;2023-02-01T22:33:38;19.90;66.20
59015;DHT22;44799;53.382;14.666;2023-02-01T22:36:05;19.90;66.30
59015;DHT22;44799;53.382;14.666;2023-02-01T22:38:33;19.90;66.40
59015;DHT22;44799;53.382;14.666;2023-02-01T22:41:01;19.80;66.40
59015;DHT22;44799;53.382;14.666;2023-02-01T22:43:27;19.90;66.20
59015;DHT22;44799;53.382;14.666;2023-02-01T22:45:57;19.90;66.60
59015;DHT22;44799;53.382;14.666;2023-02-01T22:48:23;19.90;66.70
59015;DHT22;44799;53.382;14.666;2023-02-01T22:50:49;19.90;66.70
59015;DHT22;44799;53.382;14.666;2023-02-01T22:53:14;20.00;66.80
59015;DHT22;44799;53.382;14.666;2023-02-01T22:55:40;20.00;66.70
59015;DHT22;44799;53.382;14.666;2023-02-01T22:58:07;20.00;66.30
59015;DHT22;44799;53.382;14.666;2023-02-01T23:00:33;20.00;66.50
59015;DHT22;44799;53.382;14.666;2023-02-01T23:02:59;20.00;66.30
59015;DHT22;44799;53.382;14.666;2023-02-01T23:05:25;20.00;66.30
59015;DHT22;44799;53.382;14.666;2023-02-01T23:07:51;20.00;66.40
59015;DHT22;44799;53.382;14.666;2023-02-01T23:10:18;20.00;66.60
59015;DHT22;44799;53.382;14.666;2023-02-01T23:12:45;20.00;66.60
59015;DHT22;44799;53.382;14.666;2023-02-01T23:15:12;20.00;66.90
59015;DHT22;44799;53.382;14.666;2023-02-01T23:17:42;20.00;67.60
59015;DHT22;44799;53.382;14.666;2023-02-01T23:20:11;20.00;67.30
59015;DHT22;44799;53.382;14.666;2023-02-01T23:22:41;20.00;67.50
59015;DHT22;44799;53.382;14.666;2023-02-01T23:25:08;20.00;67.60
59015;DHT22;44799;53.382;14.666;2023-02-01T23:27:34;20.00;67.50
59015;DHT22;44799;53.382;14.666;2023-02-01T23:30:00;20.00;67.50
59015;DHT22;44799;53.382;14.666;2023-02-01T23:32:26;20.00;67.40
59015;DHT22;44799;53.382;14.666;2023-02-01T23:34:52;20.00;67.60
59015;DHT22;44799;53.382;14.666;2023-02-01T23:37:18;20.00;68.00
59015;DHT22;44799;53.382;14.666;2023-02-01T23:39:43;20.00;67.90
59015;DHT22;44799;53.382;14.666;2023-02-01T23:42:09;20.00;68.00
59015;DHT22;44799;53.382;14.666;2023-02-01T23:44:35;20.00;68.30
59015;DHT22;44799;53.382;14.666;2023-02-01T23:47:01;20.00;68.00
59015;DHT22;44799;53.382;14.666;2023-02-01T23:49:26;20.00;68.50
59015;DHT22;44799;53.382;14.666;2023-02-01T23:51:52;20.00;68.90
59015;DHT22;44799;53.382;14.666;2023-02-01T23:54:21;20.10;68.60
59015;DHT22;44799;53.382;14.666;2023-02-01T23:56:48;20.00;68.70
59015;DHT22;44799;53.382;14.666;2023-02-01T23:59:19;20.10;68.80
